sensor_id;sensor_type;location;lat;lon;timestamp;temperature;humidity
76239;SHT30;65043;48.392;-4.472;2024-01-30T00:00:54;11.66;77.38
76239;SHT30;65043;48.392;-4.472;2024-01-30T00:03:19;11.66;77.33
76239;SHT30;65043;48.392;-4.472;2024-01-30T00:05:45;11.66;77.25
76239;SHT30;65043;48.392;-4.472;2024-01-30T00:08:11;11.65;77.24
76239;SHT30;65043;48.392;-4.472;2024-01-30T00:10:36;11.62;77.29
76239;SHT30;65043;48.392;-4.472;2024-01-30T00:13:01;11.63;77.17
76239;SHT30;65043;48.392;-4.472;2024-01-30T00:15:27;11.62;77.18
76239;SHT30;65043;48.392;-4.472;2024-01-30T00:17:53;11.58;77.31
76239;SHT30;65043;48.392;-4.472;2024-01-30T00:20:19;11.62;77.23
76239;SHT30;65043;48.392;-4.472;2024-01-30T00:22:44;11.57;77.08
76239;SHT30;65043;48.392;-4.472;2024-01-30T00:25:09;11.58;77.35
76239;SHT30;65043;48.392;-4.472;2024-01-30T00:27:35;11.58;77.03
76239;SHT30;65043;48.392;-4.472;2024-01-30T00:30:01;11.59;77.14
76239;SHT30;65043;48.392;-4.472;2024-01-30T00:32:26;11.54;76.89
76239;SHT30;65043;48.392;-4.472;2024-01-30T00:34:51;11.57;76.91
76239;SHT30;65043;48.392;-4.472;2024-01-30T00:37:17;11.52;77.02
76239;SHT30;65043;48.392;-4.472;2024-01-30T00:39:42;11.54;76.93
76239;SHT30;65043;48.392;-4.472;2024-01-30T00:42:08;11.52;77.39
76239;SHT30;65043;48.392;-4.472;2024-01-30T00:44:36;11.54;77.39
76239;SHT30;65043;48.392;-4.472;2024-01-30T00:47:05;11.55;77.17
76239;SHT30;65043;48.392;-4.472;2024-01-30T00:49:30;11.52;77.37
76239;SHT30;65043;48.392;-4.472;2024-01-30T00:51:56;11.52;77.42
76239;SHT30;65043;48.392;-4.472;2024-01-30T00:54:21;11.54;77.30
76239;SHT30;65043;48.392;-4.472;2024-01-30T00:56:47;11.50;77.43
76239;SHT30;65043;48.392;-4.472;2024-01-30T00:59:12;11.48;77.30
76239;SHT30;65043;48.392;-4.472;2024-01-30T01:01:38;11.45;77.21
76239;SHT30;65043;48.392;-4.472;2024-01-30T01:04:03;11.42;77.41
76239;SHT30;65043;48.392;-4.472;2024-01-30T01:06:29;11.41;77.28
76239;SHT30;65043;48.392;-4.472;2024-01-30T01:08:54;11.44;77.67
76239;SHT30;65043;48.392;-4.472;2024-01-30T01:11:20;11.42;77.38
76239;SHT30;65043;48.392;-4.472;2024-01-30T01:13:45;11.44;77.39
76239;SHT30;65043;48.392;-4.472;2024-01-30T01:16:10;11.39;77.31
76239;SHT30;65043;48.392;-4.472;2024-01-30T01:18:36;11.39;77.38
76239;SHT30;65043;48.392;-4.472;2024-01-30T01:21:01;11.41;77.54
76239;SHT30;65043;48.392;-4.472;2024-01-30T01:23:27;11.36;77.55
76239;SHT30;65043;48.392;-4.472;2024-01-30T01:25:52;11.39;77.93
76239;SHT30;65043;48.392;-4.472;2024-01-30T01:28:18;11.36;77.83
76239;SHT30;65043;48.392;-4.472;2024-01-30T01:30:44;11.39;78.04
76239;SHT30;65043;48.392;-4.472;2024-01-30T01:33:09;11.42;77.97
76239;SHT30;65043;48.392;-4.472;2024-01-30T01:35:35;11.45;77.98
76239;SHT30;65043;48.392;-4.472;2024-01-30T01:38:01;11.44;77.90
76239;SHT30;65043;48.392;-4.472;2024-01-30T01:40:27;11.44;78.03
76239;SHT30;65043;48.392;-4.472;2024-01-30T01:42:54;11.45;78.03
76239;SHT30;65043;48.392;-4.472;2024-01-30T01:45:20;11.50;77.94
76239;SHT30;65043;48.392;-4.472;2024-01-30T01:47:52;11.51;77.85
76239;SHT30;65043;48.392;-4.472;2024-01-30T01:50:20;11.48;77.72
76239;SHT30;65043;48.392;-4.472;2024-01-30T01:52:50;11.46;77.73
76239;SHT30;65043;48.392;-4.472;2024-01-30T01:55:16;11.50;77.69
76239;SHT30;65043;48.392;-4.472;2024-01-30T01:57:44;11.48;77.55
76239;SHT30;65043;48.392;-4.472;2024-01-30T02:00:10;11.46;77.60
76239;SHT30;65043;48.392;-4.472;2024-01-30T02:02:36;11.42;77.57
76239;SHT30;65043;48.392;-4.472;2024-01-30T02:05:02;11.41;77.45
76239;SHT30;65043;48.392;-4.472;2024-01-30T02:07:28;11.38;77.40
76239;SHT30;65043;48.392;-4.472;2024-01-30T02:09:54;11.36;77.60
76239;SHT30;65043;48.392;-4.472;2024-01-30T02:12:20;11.34;77.36
76239;SHT30;65043;48.392;-4.472;2024-01-30T02:14:46;11.31;77.46
76239;SHT30;65043;48.392;-4.472;2024-01-30T02:17:13;11.31;77.49
76239;SHT30;65043;48.392;-4.472;2024-01-30T02:19:39;11.28;77.69
76239;SHT30;65043;48.392;-4.472;2024-01-30T02:22:05;11.30;77.58
76239;SHT30;65043;48.392;-4.472;2024-01-30T02:24:30;11.30;77.97
76239;SHT30;65043;48.392;-4.472;2024-01-30T02:26:56;11.28;78.00
76239;SHT30;65043;48.392;-4.472;2024-01-30T02:29:21;11.28;77.95
76239;SHT30;65043;48.392;-4.472;2024-01-30T02:31:47;11.25;77.98
76239;SHT30;65043;48.392;-4.472;2024-01-30T02:34:13;11.28;77.71
76239;SHT30;65043;48.392;-4.472;2024-01-30T02:36:42;11.23;77.77
76239;SHT30;65043;48.392;-4.472;2024-01-30T02:39:08;11.23;77.88
76239;SHT30;65043;48.392;-4.472;2024-01-30T02:41:35;11.21;77.95
76239;SHT30;65043;48.392;-4.472;2024-01-30T02:44:00;11.21;78.01
76239;SHT30;65043;48.392;-4.472;2024-01-30T02:46:26;11.20;78.23
76239;SHT30;65043;48.392;-4.472;2024-01-30T02:48:51;11.23;78.43
76239;SHT30;65043;48.392;-4.472;2024-01-30T02:51:17;11.18;78.36
76239;SHT30;65043;48.392;-4.472;2024-01-30T02:53:42;11.21;78.52
76239;SHT30;65043;48.392;-4.472;2024-01-30T02:56:08;11.23;78.36
76239;SHT30;65043;48.392;-4.472;2024-01-30T02:58:35;11.21;78.29
76239;SHT30;65043;48.392;-4.472;2024-01-30T03:01:02;11.24;78.36
76239;SHT30;65043;48.392;-4.472;2024-01-30T03:03:27;11.23;78.37
76239;SHT30;65043;48.392;-4.472;2024-01-30T03:05:53;11.24;78.61
76239;SHT30;65043;48.392;-4.472;2024-01-30T03:08:18;11.25;78.55
76239;SHT30;65043;48.392;-4.472;2024-01-30T03:10:44;11.28;78.40
76239;SHT30;65043;48.392;-4.472;2024-01-30T03:13:09;11.25;78.51
76239;SHT30;65043;48.392;-4.472;2024-01-30T03:15:35;11.27;78.51
76239;SHT30;65043;48.392;-4.472;2024-01-30T03:18:02;11.28;78.35
76239;SHT30;65043;48.392;-4.472;2024-01-30T03:20:29;11.27;78.67
76239;SHT30;65043;48.392;-4.472;2024-01-30T03:22:55;11.25;78.63
76239;SHT30;65043;48.392;-4.472;2024-01-30T03:25:21;11.27;78.61
76239;SHT30;65043;48.392;-4.472;2024-01-30T03:27:46;11.25;78.59
76239;SHT30;65043;48.392;-4.472;2024-01-30T03:30:12;11.27;78.53
76239;SHT30;65043;48.392;-4.472;2024-01-30T03:32:37;11.25;78.53
76239;SHT30;65043;48.392;-4.472;2024-01-30T03:35:03;11.24;78.83
76239;SHT30;65043;48.392;-4.472;2024-01-30T03:37:29;11.27;78.70
76239;SHT30;65043;48.392;-4.472;2024-01-30T03:39:55;11.28;78.70
76239;SHT30;65043;48.392;-4.472;2024-01-30T03:42:21;11.28;78.89
76239;SHT30;65043;48.392;-4.472;2024-01-30T03:44:47;11.34;78.88
76239;SHT30;65043;48.392;-4.472;2024-01-30T03:47:13;11.35;78.80
76239;SHT30;65043;48.392;-4.472;2024-01-30T03:49:38;11.36;78.81
76239;SHT30;65043;48.392;-4.472;2024-01-30T03:52:04;11.35;78.82
76239;SHT30;65043;48.392;-4.472;2024-01-30T03:54:29;11.32;79.08
76239;SHT30;65043;48.392;-4.472;2024-01-30T03:56:55;11.31;79.34
76239;SHT30;65043;48.392;-4.472;2024-01-30T03:59:20;11.28;79.28
76239;SHT30;65043;48.392;-4.472;2024-01-30T04:01:50;11.25;79.33
76239;SHT30;65043;48.392;-4.472;2024-01-30T04:04:17;11.31;79.43
76239;SHT30;65043;48.392;-4.472;2024-01-30T04:06:44;11.28;79.57
76239;SHT30;65043;48.392;-4.472;2024-01-30T04:09:09;11.30;79.36
76239;SHT30;65043;48.392;-4.472;2024-01-30T04:11:35;11.27;79.65
76239;SHT30;65043;48.392;-4.472;2024-01-30T04:14:00;11.27;79.46
76239;SHT30;65043;48.392;-4.472;2024-01-30T04:16:26;11.28;79.53
76239;SHT30;65043;48.392;-4.472;2024-01-30T04:18:52;11.28;79.41
76239;SHT30;65043;48.392;-4.472;2024-01-30T04:21:17;11.30;79.11
76239;SHT30;65043;48.392;-4.472;2024-01-30T04:23:43;11.30;79.20
76239;SHT30;65043;48.392;-4.472;2024-01-30T04:26:08;11.30;79.12
76239;SHT30;65043;48.392;-4.472;2024-01-30T04:28:34;11.31;78.90
76239;SHT30;65043;48.392;-4.472;2024-01-30T04:30:59;11.34;78.78
76239;SHT30;65043;48.392;-4.472;2024-01-30T04:33:24;11.35;78.82
76239;SHT30;65043;48.392;-4.472;2024-01-30T04:35:50;11.34;78.84
76239;SHT30;65043;48.392;-4.472;2024-01-30T04:38:16;11.31;78.75
76239;SHT30;65043;48.392;-4.472;2024-01-30T04:40:41;11.32;78.60
76239;SHT30;65043;48.392;-4.472;2024-01-30T04:43:06;11.30;78.48
76239;SHT30;65043;48.392;-4.472;2024-01-30T04:45:32;11.28;79.03
76239;SHT30;65043;48.392;-4.472;2024-01-30T04:47:57;11.32;78.92
76239;SHT30;65043;48.392;-4.472;2024-01-30T04:50:23;11.27;78.91
76239;SHT30;65043;48.392;-4.472;2024-01-30T04:52:49;11.30;79.15
76239;SHT30;65043;48.392;-4.472;2024-01-30T04:55:14;11.30;79.23
76239;SHT30;65043;48.392;-4.472;2024-01-30T04:57:40;11.30;79.10
76239;SHT30;65043;48.392;-4.472;2024-01-30T05:00:06;11.30;79.27
76239;SHT30;65043;48.392;-4.472;2024-01-30T05:02:31;11.27;79.29
76239;SHT30;65043;48.392;-4.472;2024-01-30T05:04:57;11.28;79.20
76239;SHT30;65043;48.392;-4.472;2024-01-30T05:07:24;11.28;79.23
76239;SHT30;65043;48.392;-4.472;2024-01-30T05:09:50;11.28;79.33
76239;SHT30;65043;48.392;-4.472;2024-01-30T05:12:15;11.28;79.09
76239;SHT30;65043;48.392;-4.472;2024-01-30T05:14:40;11.27;79.11
76239;SHT30;65043;48.392;-4.472;2024-01-30T05:17:06;11.28;79.01
76239;SHT30;65043;48.392;-4.472;2024-01-30T05:19:33;11.25;78.89
76239;SHT30;65043;48.392;-4.472;2024-01-30T05:21:58;11.27;78.86
76239;SHT30;65043;48.392;-4.472;2024-01-30T05:24:24;11.28;78.43
76239;SHT30;65043;48.392;-4.472;2024-01-30T05:26:49;11.28;78.28
76239;SHT30;65043;48.392;-4.472;2024-01-30T05:29:16;11.27;78.32
76239;SHT30;65043;48.392;-4.472;2024-01-30T05:31:41;11.25;78.45
76239;SHT30;65043;48.392;-4.472;2024-01-30T05:34:07;11.28;78.30
76239;SHT30;65043;48.392;-4.472;2024-01-30T05:36:34;11.25;78.35
76239;SHT30;65043;48.392;-4.472;2024-01-30T05:39:00;11.25;78.32
76239;SHT30;65043;48.392;-4.472;2024-01-30T05:41:25;11.23;78.02
76239;SHT30;65043;48.392;-4.472;2024-01-30T05:43:54;11.20;77.96
76239;SHT30;65043;48.392;-4.472;2024-01-30T05:46:19;11.20;77.87
76239;SHT30;65043;48.392;-4.472;2024-01-30T05:48:45;11.20;77.90
76239;SHT30;65043;48.392;-4.472;2024-01-30T05:51:10;11.20;77.93
76239;SHT30;65043;48.392;-4.472;2024-01-30T05:53:35;11.18;77.88
76239;SHT30;65043;48.392;-4.472;2024-01-30T05:56:02;11.18;77.83
76239;SHT30;65043;48.392;-4.472;2024-01-30T05:58:27;11.18;77.75
76239;SHT30;65043;48.392;-4.472;2024-01-30T06:00:53;11.20;77.61
76239;SHT30;65043;48.392;-4.472;2024-01-30T06:03:18;11.18;77.62
76239;SHT30;65043;48.392;-4.472;2024-01-30T06:05:44;11.15;77.87
76239;SHT30;65043;48.392;-4.472;2024-01-30T06:08:09;11.17;78.06
76239;SHT30;65043;48.392;-4.472;2024-01-30T06:10:35;11.15;78.00
76239;SHT30;65043;48.392;-4.472;2024-01-30T06:13:00;11.15;78.02
76239;SHT30;65043;48.392;-4.472;2024-01-30T06:15:26;11.18;78.12
76239;SHT30;65043;48.392;-4.472;2024-01-30T06:17:51;11.17;78.33
76239;SHT30;65043;48.392;-4.472;2024-01-30T06:20:17;11.18;78.59
76239;SHT30;65043;48.392;-4.472;2024-01-30T06:22:43;11.20;77.92
76239;SHT30;65043;48.392;-4.472;2024-01-30T06:25:08;11.18;77.95
76239;SHT30;65043;48.392;-4.472;2024-01-30T06:27:34;11.18;77.79
76239;SHT30;65043;48.392;-4.472;2024-01-30T06:30:00;11.20;77.57
76239;SHT30;65043;48.392;-4.472;2024-01-30T06:32:26;11.20;77.40
76239;SHT30;65043;48.392;-4.472;2024-01-30T06:34:52;11.18;77.70
76239;SHT30;65043;48.392;-4.472;2024-01-30T06:37:18;11.18;77.92
76239;SHT30;65043;48.392;-4.472;2024-01-30T06:39:43;11.17;77.93
76239;SHT30;65043;48.392;-4.472;2024-01-30T06:42:09;11.14;78.05
76239;SHT30;65043;48.392;-4.472;2024-01-30T06:44:34;11.14;78.18
76239;SHT30;65043;48.392;-4.472;2024-01-30T06:47:00;11.14;78.33
76239;SHT30;65043;48.392;-4.472;2024-01-30T06:49:26;11.14;78.39
76239;SHT30;65043;48.392;-4.472;2024-01-30T06:51:51;11.11;78.53
76239;SHT30;65043;48.392;-4.472;2024-01-30T06:54:16;11.14;78.66
76239;SHT30;65043;48.392;-4.472;2024-01-30T06:56:42;11.10;78.61
76239;SHT30;65043;48.392;-4.472;2024-01-30T06:59:07;11.15;78.76
76239;SHT30;65043;48.392;-4.472;2024-01-30T07:01:33;11.15;78.70
76239;SHT30;65043;48.392;-4.472;2024-01-30T07:03:59;11.14;78.67
76239;SHT30;65043;48.392;-4.472;2024-01-30T07:06:24;11.15;78.71
76239;SHT30;65043;48.392;-4.472;2024-01-30T07:08:49;11.15;78.49
76239;SHT30;65043;48.392;-4.472;2024-01-30T07:11:19;11.15;78.62
76239;SHT30;65043;48.392;-4.472;2024-01-30T07:13:45;11.14;78.61
76239;SHT30;65043;48.392;-4.472;2024-01-30T07:16:11;11.17;78.85
76239;SHT30;65043;48.392;-4.472;2024-01-30T07:18:36;11.18;78.95
76239;SHT30;65043;48.392;-4.472;2024-01-30T07:21:02;11.17;79.05
76239;SHT30;65043;48.392;-4.472;2024-01-30T07:23:27;11.18;79.01
76239;SHT30;65043;48.392;-4.472;2024-01-30T07:25:54;11.17;78.97
76239;SHT30;65043;48.392;-4.472;2024-01-30T07:28:20;11.18;79.15
76239;SHT30;65043;48.392;-4.472;2024-01-30T07:30:45;11.20;78.12
76239;SHT30;65043;48.392;-4.472;2024-01-30T07:33:12;11.18;77.31
76239;SHT30;65043;48.392;-4.472;2024-01-30T07:35:38;11.17;76.85
76239;SHT30;65043;48.392;-4.472;2024-01-30T07:38:03;11.18;77.03
76239;SHT30;65043;48.392;-4.472;2024-01-30T07:40:29;11.20;77.37
76239;SHT30;65043;48.392;-4.472;2024-01-30T07:42:55;11.17;77.56
76239;SHT30;65043;48.392;-4.472;2024-01-30T07:45:21;11.18;77.92
76239;SHT30;65043;48.392;-4.472;2024-01-30T07:47:50;11.21;77.84
76239;SHT30;65043;48.392;-4.472;2024-01-30T07:50:16;11.20;77.76
76239;SHT30;65043;48.392;-4.472;2024-01-30T07:52:43;11.23;77.70
76239;SHT30;65043;48.392;-4.472;2024-01-30T07:58:16;11.24;76.49
76239;SHT30;65043;48.392;-4.472;2024-01-30T08:00:41;11.20;76.53
76239;SHT30;65043;48.392;-4.472;2024-01-30T08:03:07;11.20;76.93
76239;SHT30;65043;48.392;-4.472;2024-01-30T08:05:32;11.20;76.58
76239;SHT30;65043;48.392;-4.472;2024-01-30T08:07:58;11.20;76.02
76239;SHT30;65043;48.392;-4.472;2024-01-30T08:10:23;11.21;75.26
76239;SHT30;65043;48.392;-4.472;2024-01-30T08:12:49;11.21;74.25
76239;SHT30;65043;48.392;-4.472;2024-01-30T08:15:14;11.27;74.23
76239;SHT30;65043;48.392;-4.472;2024-01-30T08:17:40;11.23;73.48
76239;SHT30;65043;48.392;-4.472;2024-01-30T08:20:06;11.23;72.77
76239;SHT30;65043;48.392;-4.472;2024-01-30T08:22:33;11.25;72.79
76239;SHT30;65043;48.392;-4.472;2024-01-30T08:24:58;11.23;72.42
76239;SHT30;65043;48.392;-4.472;2024-01-30T08:27:24;11.24;73.13
76239;SHT30;65043;48.392;-4.472;2024-01-30T08:29:49;11.24;72.03
76239;SHT30;65043;48.392;-4.472;2024-01-30T08:32:15;11.25;71.84
76239;SHT30;65043;48.392;-4.472;2024-01-30T08:34:41;11.25;71.55
76239;SHT30;65043;48.392;-4.472;2024-01-30T08:37:07;11.24;71.84
76239;SHT30;65043;48.392;-4.472;2024-01-30T08:39:32;11.23;72.33
76239;SHT30;65043;48.392;-4.472;2024-01-30T08:41:58;11.21;71.61
76239;SHT30;65043;48.392;-4.472;2024-01-30T08:44:23;11.27;71.45
76239;SHT30;65043;48.392;-4.472;2024-01-30T08:46:48;11.27;71.21
76239;SHT30;65043;48.392;-4.472;2024-01-30T08:49:16;11.27;71.25
76239;SHT30;65043;48.392;-4.472;2024-01-30T08:51:42;11.28;72.37
76239;SHT30;65043;48.392;-4.472;2024-01-30T08:54:07;11.28;71.37
76239;SHT30;65043;48.392;-4.472;2024-01-30T08:56:33;11.28;71.56
76239;SHT30;65043;48.392;-4.472;2024-01-30T08:58:58;11.28;71.94
76239;SHT30;65043;48.392;-4.472;2024-01-30T09:01:25;11.27;72.40
76239;SHT30;65043;48.392;-4.472;2024-01-30T09:03:50;11.31;72.70
76239;SHT30;65043;48.392;-4.472;2024-01-30T09:06:16;11.31;72.26
76239;SHT30;65043;48.392;-4.472;2024-01-30T09:08:41;11.32;71.94
76239;SHT30;65043;48.392;-4.472;2024-01-30T09:11:11;11.35;72.36
76239;SHT30;65043;48.392;-4.472;2024-01-30T09:13:37;11.34;72.03
76239;SHT30;65043;48.392;-4.472;2024-01-30T09:16:03;11.32;72.97
76239;SHT30;65043;48.392;-4.472;2024-01-30T09:18:29;11.35;73.36
76239;SHT30;65043;48.392;-4.472;2024-01-30T09:20:54;11.39;73.21
76239;SHT30;65043;48.392;-4.472;2024-01-30T09:23:20;11.42;73.10
76239;SHT30;65043;48.392;-4.472;2024-01-30T09:25:45;11.39;73.00
76239;SHT30;65043;48.392;-4.472;2024-01-30T09:28:11;11.39;72.81
76239;SHT30;65043;48.392;-4.472;2024-01-30T09:30:36;11.41;72.52
76239;SHT30;65043;48.392;-4.472;2024-01-30T09:33:02;11.44;72.86
76239;SHT30;65043;48.392;-4.472;2024-01-30T09:35:27;11.44;73.01
76239;SHT30;65043;48.392;-4.472;2024-01-30T09:37:53;11.45;72.86
76239;SHT30;65043;48.392;-4.472;2024-01-30T09:40:18;11.48;72.99
76239;SHT30;65043;48.392;-4.472;2024-01-30T09:42:50;11.50;72.99
76239;SHT30;65043;48.392;-4.472;2024-01-30T09:45:17;11.51;72.94
76239;SHT30;65043;48.392;-4.472;2024-01-30T09:47:44;11.54;73.22
76239;SHT30;65043;48.392;-4.472;2024-01-30T09:50:11;11.54;72.54
76239;SHT30;65043;48.392;-4.472;2024-01-30T09:52:37;11.55;72.30
76239;SHT30;65043;48.392;-4.472;2024-01-30T09:55:04;11.59;72.47
76239;SHT30;65043;48.392;-4.472;2024-01-30T09:57:29;11.59;72.50
76239;SHT30;65043;48.392;-4.472;2024-01-30T09:59:55;11.63;71.61
76239;SHT30;65043;48.392;-4.472;2024-01-30T10:02:21;11.63;72.09
76239;SHT30;65043;48.392;-4.472;2024-01-30T10:04:48;11.69;71.93
76239;SHT30;65043;48.392;-4.472;2024-01-30T10:07:15;11.68;71.58
76239;SHT30;65043;48.392;-4.472;2024-01-30T10:09:41;11.68;71.09
76239;SHT30;65043;48.392;-4.472;2024-01-30T10:12:07;11.72;71.23
76239;SHT30;65043;48.392;-4.472;2024-01-30T10:14:34;11.72;70.92
76239;SHT30;65043;48.392;-4.472;2024-01-30T10:17:01;11.75;70.65
76239;SHT30;65043;48.392;-4.472;2024-01-30T10:19:26;11.73;70.16
76239;SHT30;65043;48.392;-4.472;2024-01-30T10:21:52;11.76;69.17
76239;SHT30;65043;48.392;-4.472;2024-01-30T10:24:17;11.75;68.14
76239;SHT30;65043;48.392;-4.472;2024-01-30T10:26:46;11.72;66.73
76239;SHT30;65043;48.392;-4.472;2024-01-30T10:29:12;11.71;66.03
76239;SHT30;65043;48.392;-4.472;2024-01-30T10:31:37;11.68;66.14
76239;SHT30;65043;48.392;-4.472;2024-01-30T10:34:02;11.68;65.29
76239;SHT30;65043;48.392;-4.472;2024-01-30T10:36:29;11.69;64.38
76239;SHT30;65043;48.392;-4.472;2024-01-30T10:38:59;11.65;64.42
76239;SHT30;65043;48.392;-4.472;2024-01-30T10:41:31;11.66;65.89
76239;SHT30;65043;48.392;-4.472;2024-01-30T10:44:08;11.66;66.13
76239;SHT30;65043;48.392;-4.472;2024-01-30T10:46:37;11.71;66.60
76239;SHT30;65043;48.392;-4.472;2024-01-30T10:49:04;11.69;66.72
76239;SHT30;65043;48.392;-4.472;2024-01-30T10:51:31;11.71;66.96
76239;SHT30;65043;48.392;-4.472;2024-01-30T10:53:57;11.72;66.51
76239;SHT30;65043;48.392;-4.472;2024-01-30T10:56:23;11.78;67.32
76239;SHT30;65043;48.392;-4.472;2024-01-30T10:58:50;11.76;66.55
76239;SHT30;65043;48.392;-4.472;2024-01-30T11:01:18;11.76;67.04
76239;SHT30;65043;48.392;-4.472;2024-01-30T11:03:45;11.78;66.62
76239;SHT30;65043;48.392;-4.472;2024-01-30T11:06:11;11.78;67.01
76239;SHT30;65043;48.392;-4.472;2024-01-30T11:08:43;11.79;66.31
76239;SHT30;65043;48.392;-4.472;2024-01-30T11:11:09;11.81;65.32
76239;SHT30;65043;48.392;-4.472;2024-01-30T11:13:36;11.82;64.62
76239;SHT30;65043;48.392;-4.472;2024-01-30T11:16:02;11.82;65.66
76239;SHT30;65043;48.392;-4.472;2024-01-30T11:18:30;11.86;65.91
76239;SHT30;65043;48.392;-4.472;2024-01-30T11:20:59;11.90;66.42
76239;SHT30;65043;48.392;-4.472;2024-01-30T11:23:27;11.90;64.55
76239;SHT30;65043;48.392;-4.472;2024-01-30T11:25:53;11.87;65.21
76239;SHT30;65043;48.392;-4.472;2024-01-30T11:28:21;11.90;63.67
76239;SHT30;65043;48.392;-4.472;2024-01-30T11:30:47;11.86;64.01
76239;SHT30;65043;48.392;-4.472;2024-01-30T11:33:29;11.83;63.13
76239;SHT30;65043;48.392;-4.472;2024-01-30T11:35:57;11.83;63.58
76239;SHT30;65043;48.392;-4.472;2024-01-30T11:38:25;11.85;63.99
76239;SHT30;65043;48.392;-4.472;2024-01-30T11:40:51;11.87;63.55
76239;SHT30;65043;48.392;-4.472;2024-01-30T11:43:18;11.87;63.22
76239;SHT30;65043;48.392;-4.472;2024-01-30T11:45:44;11.89;63.24
76239;SHT30;65043;48.392;-4.472;2024-01-30T11:48:12;11.90;63.16
76239;SHT30;65043;48.392;-4.472;2024-01-30T11:50:39;11.89;63.86
76239;SHT30;65043;48.392;-4.472;2024-01-30T11:53:05;11.90;63.90
76239;SHT30;65043;48.392;-4.472;2024-01-30T11:55:30;11.89;64.14
76239;SHT30;65043;48.392;-4.472;2024-01-30T11:57:59;11.87;62.98
76239;SHT30;65043;48.392;-4.472;2024-01-30T12:00:25;11.92;64.23
76239;SHT30;65043;48.392;-4.472;2024-01-30T12:02:53;11.93;63.87
76239;SHT30;65043;48.392;-4.472;2024-01-30T12:05:24;11.94;64.48
76239;SHT30;65043;48.392;-4.472;2024-01-30T12:07:50;11.94;63.99
76239;SHT30;65043;48.392;-4.472;2024-01-30T12:10:16;11.97;64.27
76239;SHT30;65043;48.392;-4.472;2024-01-30T12:12:44;11.99;64.50
76239;SHT30;65043;48.392;-4.472;2024-01-30T12:15:10;11.99;65.03
76239;SHT30;65043;48.392;-4.472;2024-01-30T12:17:36;12.00;65.06
76239;SHT30;65043;48.392;-4.472;2024-01-30T12:20:08;12.02;65.24
76239;SHT30;65043;48.392;-4.472;2024-01-30T12:25:10;12.03;65.73
76239;SHT30;65043;48.392;-4.472;2024-01-30T12:27:36;12.03;65.01
76239;SHT30;65043;48.392;-4.472;2024-01-30T12:30:06;11.96;65.49
76239;SHT30;65043;48.392;-4.472;2024-01-30T12:32:38;11.99;66.19
76239;SHT30;65043;48.392;-4.472;2024-01-30T12:35:07;12.02;65.83
76239;SHT30;65043;48.392;-4.472;2024-01-30T12:37:33;11.96;65.79
76239;SHT30;65043;48.392;-4.472;2024-01-30T12:39:59;11.99;65.91
76239;SHT30;65043;48.392;-4.472;2024-01-30T12:42:27;11.99;66.07
76239;SHT30;65043;48.392;-4.472;2024-01-30T12:44:52;11.96;66.17
76239;SHT30;65043;48.392;-4.472;2024-01-30T12:47:18;12.02;66.10
76239;SHT30;65043;48.392;-4.472;2024-01-30T12:49:46;12.00;65.93
76239;SHT30;65043;48.392;-4.472;2024-01-30T12:52:12;12.02;66.52
76239;SHT30;65043;48.392;-4.472;2024-01-30T12:54:38;12.02;66.42
76239;SHT30;65043;48.392;-4.472;2024-01-30T12:57:05;12.04;66.04
76239;SHT30;65043;48.392;-4.472;2024-01-30T12:59:30;12.00;65.37
76239;SHT30;65043;48.392;-4.472;2024-01-30T13:01:56;12.03;65.04
76239;SHT30;65043;48.392;-4.472;2024-01-30T13:04:22;12.06;64.78
76239;SHT30;65043;48.392;-4.472;2024-01-30T13:06:48;12.06;65.07
76239;SHT30;65043;48.392;-4.472;2024-01-30T13:09:13;12.07;63.35
76239;SHT30;65043;48.392;-4.472;2024-01-30T13:11:39;12.02;62.16
76239;SHT30;65043;48.392;-4.472;2024-01-30T13:14:04;12.02;62.32
76239;SHT30;65043;48.392;-4.472;2024-01-30T13:16:30;11.97;61.99
76239;SHT30;65043;48.392;-4.472;2024-01-30T13:18:55;12.00;63.20
76239;SHT30;65043;48.392;-4.472;2024-01-30T13:21:21;12.06;62.84
76239;SHT30;65043;48.392;-4.472;2024-01-30T13:23:47;12.09;63.42
76239;SHT30;65043;48.392;-4.472;2024-01-30T13:26:12;12.10;64.15
76239;SHT30;65043;48.392;-4.472;2024-01-30T13:28:38;12.13;64.26
76239;SHT30;65043;48.392;-4.472;2024-01-30T13:31:03;12.10;61.93
76239;SHT30;65043;48.392;-4.472;2024-01-30T13:33:30;12.09;61.93
76239;SHT30;65043;48.392;-4.472;2024-01-30T13:35:56;12.07;62.33
76239;SHT30;65043;48.392;-4.472;2024-01-30T13:38:21;12.12;62.76
76239;SHT30;65043;48.392;-4.472;2024-01-30T13:40:47;12.14;62.19
76239;SHT30;65043;48.392;-4.472;2024-01-30T13:43:12;12.12;61.97
76239;SHT30;65043;48.392;-4.472;2024-01-30T13:45:37;12.13;62.78
76239;SHT30;65043;48.392;-4.472;2024-01-30T13:48:03;12.16;63.01
76239;SHT30;65043;48.392;-4.472;2024-01-30T13:50:29;12.16;62.48
76239;SHT30;65043;48.392;-4.472;2024-01-30T13:52:54;12.19;62.51
76239;SHT30;65043;48.392;-4.472;2024-01-30T13:55:20;12.22;63.62
76239;SHT30;65043;48.392;-4.472;2024-01-30T13:57:45;12.19;61.69
76239;SHT30;65043;48.392;-4.472;2024-01-30T14:00:11;12.17;61.37
76239;SHT30;65043;48.392;-4.472;2024-01-30T14:02:37;12.19;61.52
76239;SHT30;65043;48.392;-4.472;2024-01-30T14:05:04;12.16;60.92
76239;SHT30;65043;48.392;-4.472;2024-01-30T14:07:30;12.16;60.86
76239;SHT30;65043;48.392;-4.472;2024-01-30T14:09:56;12.19;60.72
76239;SHT30;65043;48.392;-4.472;2024-01-30T14:12:21;12.17;59.92
76239;SHT30;65043;48.392;-4.472;2024-01-30T14:14:47;12.17;61.16
76239;SHT30;65043;48.392;-4.472;2024-01-30T14:17:12;12.23;61.45
76239;SHT30;65043;48.392;-4.472;2024-01-30T14:19:38;12.24;60.84
76239;SHT30;65043;48.392;-4.472;2024-01-30T14:22:03;12.29;61.68
76239;SHT30;65043;48.392;-4.472;2024-01-30T14:24:29;12.30;61.68
76239;SHT30;65043;48.392;-4.472;2024-01-30T14:26:54;12.30;61.06
76239;SHT30;65043;48.392;-4.472;2024-01-30T14:29:20;12.30;62.13
76239;SHT30;65043;48.392;-4.472;2024-01-30T14:31:45;12.33;62.19
76239;SHT30;65043;48.392;-4.472;2024-01-30T14:34:11;12.34;61.38
76239;SHT30;65043;48.392;-4.472;2024-01-30T14:36:37;12.33;62.06
76239;SHT30;65043;48.392;-4.472;2024-01-30T14:39:03;12.31;61.65
76239;SHT30;65043;48.392;-4.472;2024-01-30T14:41:29;12.34;62.10
76239;SHT30;65043;48.392;-4.472;2024-01-30T14:43:54;12.34;61.25
76239;SHT30;65043;48.392;-4.472;2024-01-30T14:46:21;12.30;61.00
76239;SHT30;65043;48.392;-4.472;2024-01-30T14:48:47;12.30;60.65
76239;SHT30;65043;48.392;-4.472;2024-01-30T14:51:12;12.29;60.84
76239;SHT30;65043;48.392;-4.472;2024-01-30T14:53:38;12.31;60.22
76239;SHT30;65043;48.392;-4.472;2024-01-30T14:56:04;12.30;61.40
76239;SHT30;65043;48.392;-4.472;2024-01-30T14:58:30;12.26;61.68
76239;SHT30;65043;48.392;-4.472;2024-01-30T15:00:56;12.29;62.04
76239;SHT30;65043;48.392;-4.472;2024-01-30T15:03:21;12.27;61.77
76239;SHT30;65043;48.392;-4.472;2024-01-30T15:05:46;12.26;61.74
76239;SHT30;65043;48.392;-4.472;2024-01-30T15:08:12;12.24;62.00
76239;SHT30;65043;48.392;-4.472;2024-01-30T15:10:37;12.23;62.09
76239;SHT30;65043;48.392;-4.472;2024-01-30T15:13:03;12.24;62.72